Time;durP1;ratioP1;P1;durP2;ratioP2;P2;SDS_P1;SDS_P2;PMS_P1;PMS_P2;Temp;Humidity;BMP_temperature;BMP_pressure;BME280_temperature;BME280_humidity;BME280_pressure;Samples;Min_cycle;Max_cycle;Signal;HPM_P1;HPM_P2
2023/09/22 00:01:43;;;;;;;1.80;1.52;;;;;;;20.34;62.55;99804.53;4985344;28;20477;-57
2023/09/22 00:04:10;;;;;;;3.30;1.50;;;;;;;20.31;62.35;99806.59;4988099;28;20073;-57
2023/09/22 00:06:36;;;;;;;1.88;1.67;;;;;;;20.31;62.46;99806.59;4989629;28;20098;-57
2023/09/22 00:09:02;;;;;;;1.73;1.63;;;;;;;20.32;62.32;99802.03;4990157;28;20034;-57
2023/09/22 00:11:28;;;;;;;2.40;1.77;;;;;;;20.32;62.37;99802.03;4990677;28;20082;-57
2023/09/22 00:13:53;;;;;;;1.55;1.45;;;;;;;20.32;62.45;99807.44;4990733;28;20696;-57
2023/09/22 00:16:19;;;;;;;1.67;1.58;;;;;;;20.33;62.08;99808.25;4991077;28;20118;-58
2023/09/22 00:18:44;;;;;;;1.63;1.52;;;;;;;20.30;62.43;99810.31;4991441;28;20076;-57
2023/09/22 00:21:09;;;;;;;1.90;1.60;;;;;;;20.31;62.15;99805.72;4989965;28;20099;-57
2023/09/22 00:23:35;;;;;;;2.17;1.48;;;;;;;20.29;61.97;99805.91;4988607;28;20030;-57
2023/09/22 00:26:02;;;;;;;1.55;1.45;;;;;;;20.28;62.12;99809.66;4991449;28;20072;-57
2023/09/22 00:28:27;;;;;;;1.50;1.33;;;;;;;20.28;62.42;99801.56;4987726;28;20030;-57
2023/09/22 00:30:53;;;;;;;2.00;1.60;;;;;;;20.29;62.40;99799.69;4992547;28;20034;-57
2023/09/22 00:33:18;;;;;;;1.40;1.30;;;;;;;20.28;61.84;99808.84;4987752;28;20062;-57
2023/09/22 00:35:43;;;;;;;1.65;1.55;;;;;;;20.27;61.95;99804.44;4988577;28;20165;-57
2023/09/22 00:38:10;;;;;;;1.60;1.45;;;;;;;20.28;61.84;99825.06;4988456;28;20031;-57
2023/09/22 00:40:35;;;;;;;1.35;1.17;;;;;;;20.26;61.71;99825.22;4981808;28;20046;-57
2023/09/22 00:43:11;;;;;;;1.45;1.35;;;;;;;20.27;61.75;99832.31;4992998;28;20038;-57
2023/09/22 00:45:47;;;;;;;2.22;1.15;;;;;;;20.26;62.41;99825.22;4983123;28;20035;-57
2023/09/22 00:48:26;;;;;;;2.00;1.40;;;;;;;20.27;62.16;99820.66;4984698;28;20034;-57
2023/09/22 00:50:53;;;;;;;2.50;1.55;;;;;;;20.25;61.78;99818.13;4988417;28;20039;-57
2023/09/22 00:53:19;;;;;;;1.77;1.40;;;;;;;20.25;62.16;99820.00;4988029;28;20161;-57
2023/09/22 00:55:50;;;;;;;1.95;1.45;;;;;;;20.24;61.94;99813.78;4990566;28;20515;-57
2023/09/22 00:58:16;;;;;;;1.83;1.27;;;;;;;20.24;62.12;99797.56;4992293;28;20026;-57
2023/09/22 01:00:47;;;;;;;2.47;1.30;;;;;;;20.23;61.86;99795.84;4985520;28;20033;-57
2023/09/22 01:03:12;;;;;;;1.65;1.40;;;;;;;20.23;62.00;99798.56;4988917;28;20026;-58
2023/09/22 01:05:37;;;;;;;1.23;1.13;;;;;;;20.23;61.80;99803.97;4988728;28;20057;-57
2023/09/22 01:08:03;;;;;;;1.40;1.30;;;;;;;20.23;61.55;99800.44;4982326;28;20054;-57
2023/09/22 01:10:39;;;;;;;1.55;1.13;;;;;;;20.23;61.94;99816.66;4990542;28;20393;-57
2023/09/22 01:13:05;;;;;;;1.35;1.08;;;;;;;20.22;61.61;99820.38;4984933;28;20030;-57
2023/09/22 01:15:40;;;;;;;1.45;1.27;;;;;;;20.21;61.96;99816.84;5004859;28;20038;-57
2023/09/22 01:18:06;;;;;;;1.63;1.33;;;;;;;20.21;61.63;99806.03;4987752;28;20116;-57
2023/09/22 01:20:38;;;;;;;1.38;1.13;;;;;;;20.20;61.62;99804.34;4986429;28;20432;-57
2023/09/22 01:23:03;;;;;;;1.27;1.17;;;;;;;20.20;61.75;99808.91;4987878;28;20041;-57
2023/09/22 01:25:28;;;;;;;2.42;1.27;;;;;;;20.20;61.57;99811.59;4987201;28;20413;-57
2023/09/22 01:27:54;;;;;;;1.80;1.52;;;;;;;20.20;61.63;99809.75;4987579;28;20061;-57
2023/09/22 01:30:19;;;;;;;1.40;1.30;;;;;;;20.19;61.79;99810.78;4991952;28;20026;-57
2023/09/22 01:32:44;;;;;;;2.00;1.40;;;;;;;20.19;61.65;99805.38;4987424;28;20031;-57
2023/09/22 01:35:10;;;;;;;2.65;1.20;;;;;;;20.17;62.03;99804.72;4986432;28;20027;-57
2023/09/22 01:37:50;;;;;;;1.30;1.20;;;;;;;20.18;62.03;99792.91;4989041;28;20188;-57
2023/09/22 01:40:17;;;;;;;1.40;1.30;;;;;;;20.17;61.61;99799.31;4987993;28;20083;-57
2023/09/22 01:42:43;;;;;;;1.60;1.50;;;;;;;20.17;61.60;99787.66;4988829;28;20782;-57
2023/09/22 01:45:09;;;;;;;1.60;1.50;;;;;;;20.17;61.36;99793.06;4986031;28;20081;-57
2023/09/22 01:47:34;;;;;;;1.67;1.20;;;;;;;20.17;61.93;99795.78;4989671;28;20416;-57
2023/09/22 01:50:00;;;;;;;1.33;1.23;;;;;;;20.17;61.56;99793.06;4986957;28;20056;-57
2023/09/22 01:52:25;;;;;;;1.67;1.58;;;;;;;20.15;61.74;99790.56;4997619;28;20034;-57
2023/09/22 01:54:50;;;;;;;1.90;1.40;;;;;;;20.15;61.42;99801.38;4986295;28;20038;-57
2023/09/22 01:57:17;;;;;;;1.65;1.27;;;;;;;20.15;61.42;99805.94;4989243;28;20508;-57
2023/09/22 01:59:43;;;;;;;1.15;1.15;;;;;;;20.14;61.36;99815.88;4984023;28;20109;-57
2023/09/22 02:02:08;;;;;;;1.45;1.20;;;;;;;20.15;61.42;99803.25;4989807;28;20595;-57
2023/09/22 02:04:34;;;;;;;1.23;1.13;;;;;;;20.14;61.28;99806.94;4985081;28;20133;-57
2023/09/22 02:06:59;;;;;;;1.83;1.25;;;;;;;20.14;61.51;99802.38;4982905;28;20114;-57
2023/09/22 02:09:24;;;;;;;1.98;1.10;;;;;;;20.13;61.44;99802.59;4992900;28;20145;-57
2023/09/22 02:11:50;;;;;;;2.33;1.63;;;;;;;20.12;61.11;99796.31;4991969;28;20393;-57
2023/09/22 02:14:16;;;;;;;1.73;1.33;;;;;;;20.12;61.23;99790.91;4986570;28;20369;-57
2023/09/22 02:16:41;;;;;;;1.48;1.38;;;;;;;20.11;61.57;99798.19;4988481;28;20038;-57
2023/09/22 02:19:07;;;;;;;1.42;1.00;;;;;;;20.11;61.32;99800.06;4986822;28;20109;-57
2023/09/22 02:21:32;;;;;;;2.53;1.70;;;;;;;20.12;61.12;99799.03;4988851;28;20026;-57
2023/09/22 02:23:57;;;;;;;1.30;1.20;;;;;;;20.11;61.19;99800.91;4990501;28;20381;-57
2023/09/22 02:26:23;;;;;;;1.45;1.30;;;;;;;20.11;61.14;99800.06;4986172;28;20034;-57
2023/09/22 02:28:51;;;;;;;1.33;1.23;;;;;;;20.10;61.32;99804.63;4989821;28;20080;-57
2023/09/22 02:31:17;;;;;;;1.48;1.38;;;;;;;20.09;61.57;99811.06;4988726;28;20042;-57
2023/09/22 02:33:42;;;;;;;1.77;1.38;;;;;;;20.09;61.02;99821.03;4986153;28;20575;-57
2023/09/22 02:36:08;;;;;;;1.77;1.35;;;;;;;20.09;61.44;99807.53;4987286;28;20042;-57
2023/09/22 02:38:33;;;;;;;2.88;1.30;;;;;;;20.08;61.40;99805.84;4983814;28;20042;-57
2023/09/22 02:40:58;;;;;;;1.58;1.30;;;;;;;20.09;61.21;99802.13;4987479;28;20026;-57
2023/09/22 02:43:24;;;;;;;1.63;1.38;;;;;;;20.07;61.34;99799.59;4987329;28;20034;-57
2023/09/22 02:45:51;;;;;;;1.30;1.20;;;;;;;20.08;61.45;99797.72;4980370;28;20027;-57
2023/09/22 02:48:16;;;;;;;1.25;1.20;;;;;;;20.07;61.27;99801.47;4991055;28;20030;-57
2023/09/22 02:50:41;;;;;;;2.83;1.15;;;;;;;20.07;61.23;99801.47;4987077;28;20541;-57
2023/09/22 02:53:07;;;;;;;1.30;1.20;;;;;;;20.07;61.42;99809.56;4981109;28;20038;-57
2023/09/22 02:55:36;;;;;;;1.40;1.30;;;;;;;20.06;61.16;99807.88;4989424;28;20440;-57
2023/09/22 02:58:02;;;;;;;1.20;1.10;;;;;;;20.07;61.43;99809.56;4983344;28;20070;-57
2023/09/22 03:00:28;;;;;;;1.58;1.20;;;;;;;20.05;61.57;99798.94;4991120;28;20050;-57
2023/09/22 03:02:54;;;;;;;1.25;1.13;;;;;;;20.05;61.25;99800.81;4985271;28;20093;-57
2023/09/22 03:05:20;;;;;;;1.50;1.40;;;;;;;20.05;61.47;99801.66;4984468;28;20050;-57
2023/09/22 03:07:50;;;;;;;2.72;1.38;;;;;;;20.05;61.19;99807.06;4990647;28;21085;-57
2023/09/22 03:10:15;;;;;;;1.17;1.05;;;;;;;20.04;61.38;99796.41;4982884;28;20036;-57
2023/09/22 03:12:42;;;;;;;1.35;1.25;;;;;;;20.04;61.36;99801.81;4984503;28;20121;-57
2023/09/22 03:15:09;;;;;;;1.67;1.10;;;;;;;20.03;61.45;99802.84;4985264;28;20370;-57
2023/09/22 03:17:36;;;;;;;1.35;1.25;;;;;;;20.03;61.32;99803.69;4986104;28;20129;-57
2023/09/22 03:20:03;;;;;;;1.58;1.40;;;;;;;20.02;61.25;99804.72;4986973;28;20027;-57
2023/09/22 03:22:28;;;;;;;1.55;1.10;;;;;;;20.03;60.95;99808.25;4987383;28;20045;-57
2023/09/22 03:24:53;;;;;;;1.75;1.40;;;;;;;20.02;61.41;99809.28;4984529;28;20026;-57
2023/09/22 03:27:19;;;;;;;1.40;1.30;;;;;;;20.03;61.01;99802.84;4986257;28;20044;-57
2023/09/22 03:29:45;;;;;;;1.50;1.30;;;;;;;20.02;61.04;99802.00;4985234;28;20066;-57
2023/09/22 03:32:10;;;;;;;1.75;1.38;;;;;;;20.01;61.22;99805.75;4989074;28;20056;-57
2023/09/22 03:34:36;;;;;;;1.50;1.40;;;;;;;20.00;60.82;99797.81;4985464;28;20042;-57
2023/09/22 03:37:08;;;;;;;1.40;1.30;;;;;;;20.01;60.90;99802.19;4982497;28;20050;-57
2023/09/22 03:39:33;;;;;;;2.03;1.35;;;;;;;20.02;61.11;99806.59;4991948;28;20034;-57
2023/09/22 03:41:58;;;;;;;1.15;1.08;;;;;;;20.01;60.93;99804.88;4985608;28;20073;-57
2023/09/22 03:44:25;;;;;;;1.40;1.30;;;;;;;20.00;61.41;99814.03;4981769;28;20077;-57
2023/09/22 03:46:50;;;;;;;1.35;1.23;;;;;;;20.01;61.31;99810.28;4990938;28;20468;-57
2023/09/22 03:49:15;;;;;;;1.30;1.20;;;;;;;19.99;61.17;99802.41;4986152;28;20061;-58
2023/09/22 03:51:41;;;;;;;3.65;1.60;;;;;;;19.99;60.88;99809.63;4995335;28;20030;-57
2023/09/22 03:54:08;;;;;;;1.17;1.00;;;;;;;20.00;61.21;99811.34;4988059;28;20039;-57
2023/09/22 03:56:37;;;;;;;2.25;1.10;;;;;;;19.98;61.10;99818.78;4987562;28;20064;-57
2023/09/22 03:59:03;;;;;;;2.55;1.52;;;;;;;19.97;61.12;99814.38;4991943;28;20035;-57
2023/09/22 04:01:30;;;;;;;3.45;1.60;;;;;;;19.97;60.92;99822.50;4987110;28;20045;-57
2023/09/22 04:03:55;;;;;;;1.20;1.10;;;;;;;19.97;61.00;99819.78;4986512;28;20082;-57
2023/09/22 04:06:20;;;;;;;1.10;1.00;;;;;;;19.98;60.53;99818.78;4988412;28;20065;-57
2023/09/22 04:08:45;;;;;;;1.25;1.15;;;;;;;19.96;61.03;99818.13;4989422;28;20069;-57
2023/09/22 04:11:11;;;;;;;1.88;1.17;;;;;;;19.96;61.09;99824.38;4986652;28;20031;-57
2023/09/22 04:13:37;;;;;;;1.00;1.00;;;;;;;19.97;61.21;99827.91;4991595;28;20030;-57
2023/09/22 04:16:04;;;;;;;1.38;1.27;;;;;;;19.95;60.75;99825.38;4991345;28;20025;-57
2023/09/22 04:18:30;;;;;;;1.25;1.10;;;;;;;19.95;61.39;99829.94;4991038;28;20495;-57
2023/09/22 04:20:57;;;;;;;1.67;1.17;;;;;;;19.95;61.10;99833.47;4988178;28;20027;-57
2023/09/22 04:23:25;;;;;;;1.45;1.20;;;;;;;19.95;61.43;99827.25;4991561;28;20030;-57
2023/09/22 04:25:54;;;;;;;1.38;1.17;;;;;;;19.95;61.00;99829.94;4990977;28;20085;-57
2023/09/22 04:28:25;;;;;;;1.67;1.15;;;;;;;19.94;60.77;99831.00;4982756;28;20074;-57
2023/09/22 04:30:51;;;;;;;0.95;0.95;;;;;;;19.94;61.01;99828.28;4994832;28;20026;-57
2023/09/22 04:33:17;;;;;;;1.58;1.10;;;;;;;19.95;60.82;99832.66;4988005;28;20033;-57
2023/09/22 04:35:43;;;;;;;0.90;0.90;;;;;;;19.95;60.90;99841.59;4987275;28;20404;-57
2023/09/22 04:38:11;;;;;;;1.35;1.20;;;;;;;19.94;61.09;99831.00;4992876;28;20101;-57
2023/09/22 04:40:38;;;;;;;1.70;1.08;;;;;;;19.93;60.92;99835.53;4985863;28;20042;-57
2023/09/22 04:43:07;;;;;;;1.15;1.00;;;;;;;19.92;61.09;99833.88;4985540;28;20030;-57
2023/09/22 04:45:45;;;;;;;1.20;1.10;;;;;;;19.91;61.17;99827.63;4988101;28;20362;-57
2023/09/22 04:48:11;;;;;;;1.63;1.17;;;;;;;19.92;61.19;99832.00;4987203;28;20026;-57
2023/09/22 04:50:38;;;;;;;1.10;1.10;;;;;;;19.92;60.89;99837.41;4987966;28;20046;-57
2023/09/22 04:53:04;;;;;;;2.08;1.27;;;;;;;19.91;61.16;99830.34;4990669;28;20030;-57
2023/09/22 04:55:34;;;;;;;0.90;0.90;;;;;;;19.91;61.08;99838.44;4989990;28;20034;-57
2023/09/22 04:58:00;;;;;;;1.58;0.90;;;;;;;19.91;60.72;99835.75;4990246;28;20021;-57
2023/09/22 05:00:27;;;;;;;1.30;1.10;;;;;;;19.91;61.16;99830.34;4987229;28;20034;-57
2023/09/22 05:02:52;;;;;;;1.33;1.10;;;;;;;19.90;60.88;99831.34;4991016;28;20038;-57
2023/09/22 05:05:18;;;;;;;1.77;0.98;;;;;;;19.89;60.76;99835.06;4988375;28;20447;-57
2023/09/22 05:07:44;;;;;;;1.20;1.10;;;;;;;19.90;60.77;99833.22;4982214;28;20039;-57
2023/09/22 05:10:10;;;;;;;1.17;0.93;;;;;;;19.90;61.11;99841.31;4992724;28;20026;-57
2023/09/22 05:12:36;;;;;;;1.98;1.10;;;;;;;19.89;61.10;99848.56;4985073;28;20109;-57
2023/09/22 05:15:03;;;;;;;1.20;1.10;;;;;;;19.88;60.65;99849.59;4989551;28;20118;-58
2023/09/22 05:17:28;;;;;;;1.95;1.10;;;;;;;19.88;60.93;99852.31;4989486;28;20477;-57
2023/09/22 05:19:54;;;;;;;1.17;1.08;;;;;;;19.88;60.67;99852.31;4984849;28;20055;-57
2023/09/22 05:22:21;;;;;;;1.63;1.10;;;;;;;19.89;61.04;99855.84;4992880;28;20026;-57
2023/09/22 05:24:46;;;;;;;0.85;0.85;;;;;;;19.87;61.18;99856.00;4984762;28;20030;-57
2023/09/22 05:27:12;;;;;;;1.20;0.88;;;;;;;19.87;60.80;99857.88;4984504;28;20041;-57
2023/09/22 05:29:37;;;;;;;1.35;1.02;;;;;;;19.88;60.96;99867.69;4989339;28;20117;-57
2023/09/22 05:32:03;;;;;;;1.02;0.85;;;;;;;19.88;60.67;99854.19;4981734;28;20062;-57
2023/09/22 05:34:28;;;;;;;1.20;0.90;;;;;;;19.87;61.11;99864.13;4988625;28;20080;-57
2023/09/22 05:36:54;;;;;;;1.98;0.90;;;;;;;19.87;60.91;99863.28;4990022;28;20357;-57
2023/09/22 05:39:20;;;;;;;1.17;1.05;;;;;;;19.86;60.82;99867.84;4987221;28;20041;-57
2023/09/22 05:41:49;;;;;;;1.00;0.90;;;;;;;19.87;60.62;99876.78;4990198;28;20097;-57
2023/09/22 05:44:17;;;;;;;1.55;1.02;;;;;;;19.87;60.98;99883.03;4990237;28;20035;-57
2023/09/22 05:46:43;;;;;;;1.35;1.00;;;;;;;19.86;60.92;99884.06;4982314;28;20034;-57
2023/09/22 05:49:14;;;;;;;2.10;0.90;;;;;;;19.87;60.65;99893.00;4988021;28;20361;-57
2023/09/22 05:51:40;;;;;;;1.23;0.93;;;;;;;19.86;60.84;99900.28;4987638;28;20084;-57
2023/09/22 05:54:06;;;;;;;0.98;0.85;;;;;;;19.87;60.84;99898.41;4986447;28;20034;-57
2023/09/22 05:56:31;;;;;;;1.02;0.73;;;;;;;19.85;61.02;99898.59;4988779;28;20046;-57
2023/09/22 05:58:56;;;;;;;0.93;0.90;;;;;;;19.85;60.87;99895.88;4985472;28;20038;-57
2023/09/22 06:01:22;;;;;;;0.85;0.85;;;;;;;19.84;60.77;99888.81;4988503;28;20417;-57
2023/09/22 06:03:47;;;;;;;0.68;0.68;;;;;;;19.84;60.87;99899.63;4987211;28;20473;-57
2023/09/22 06:06:16;;;;;;;1.40;0.93;;;;;;;19.84;60.83;99907.72;4981482;28;20062;-57
2023/09/22 06:08:44;;;;;;;1.58;1.02;;;;;;;19.84;60.92;99921.22;4991662;28;20034;-57
2023/09/22 06:11:11;;;;;;;1.13;0.88;;;;;;;19.84;60.81;99909.59;4982053;28;20035;-57
2023/09/22 06:13:37;;;;;;;0.80;0.80;;;;;;;19.83;60.84;99908.72;4985275;28;20041;-57
2023/09/22 06:16:04;;;;;;;1.45;0.80;;;;;;;19.83;60.82;99914.13;4987216;28;20035;-57
2023/09/22 06:18:30;;;;;;;1.40;0.93;;;;;;;19.84;60.92;99923.09;4986362;28;20033;-57
2023/09/22 06:20:56;;;;;;;1.10;0.85;;;;;;;19.83;60.54;99919.53;4990361;28;20031;-57
2023/09/22 06:23:25;;;;;;;1.10;0.63;;;;;;;19.84;60.61;99918.53;4984337;28;20037;-57
2023/09/22 06:25:51;;;;;;;1.42;0.98;;;;;;;19.85;60.93;99919.34;4988760;28;20030;-57
2023/09/22 06:28:18;;;;;;;2.22;0.98;;;;;;;19.86;60.68;99931.88;4990662;28;20023;-57
2023/09/22 06:30:46;;;;;;;0.80;0.80;;;;;;;19.86;61.10;99932.69;4985445;28;20041;-57
2023/09/22 06:33:13;;;;;;;2.33;0.88;;;;;;;19.88;60.70;99936.06;4981037;28;20041;-57
2023/09/22 06:35:39;;;;;;;1.58;0.90;;;;;;;19.88;61.22;99936.06;4987050;28;20472;-57
2023/09/22 06:38:06;;;;;;;1.20;0.90;;;;;;;19.87;61.38;99937.06;4986806;28;20037;-57
2023/09/22 06:40:35;;;;;;;1.23;1.10;;;;;;;19.87;61.30;99937.06;4988489;28;20042;-57
2023/09/22 06:43:00;;;;;;;1.23;1.10;;;;;;;19.88;61.30;99933.34;4987322;28;20097;-57
2023/09/22 06:45:25;;;;;;;1.00;0.90;;;;;;;19.89;61.47;99929.59;4982055;28;20485;-57
2023/09/22 06:47:51;;;;;;;2.03;0.98;;;;;;;19.91;61.49;99945.66;4990398;28;20109;-57
2023/09/22 06:50:17;;;;;;;1.05;0.98;;;;;;;19.90;61.47;99942.09;4983740;28;20089;-57
2023/09/22 06:52:43;;;;;;;1.90;1.00;;;;;;;19.91;61.42;99949.22;4980850;28;20500;-57
2023/09/22 06:55:13;;;;;;;1.70;1.20;;;;;;;19.90;61.83;99950.22;4989476;28;20030;-57
2023/09/22 06:57:42;;;;;;;1.50;0.93;;;;;;;19.91;61.82;99949.22;4982812;28;20125;-59
2023/09/22 07:00:22;;;;;;;2.45;1.08;;;;;;;19.92;61.48;99955.44;4984542;28;20038;-58
2023/09/22 07:02:48;;;;;;;0.83;0.70;;;;;;;19.91;62.03;99951.91;4985167;28;20038;-57
2023/09/22 07:05:14;;;;;;;0.80;0.73;;;;;;;19.91;61.79;99948.34;4988455;28;20673;-57
2023/09/22 07:07:40;;;;;;;1.75;0.93;;;;;;;19.92;62.14;99948.16;4988995;28;20049;-57
2023/09/22 07:10:10;;;;;;;1.10;1.00;;;;;;;19.92;62.10;99953.56;4988625;28;20105;-57
2023/09/22 07:12:39;;;;;;;1.95;0.93;;;;;;;19.92;62.03;99956.28;4986044;28;20046;-57
2023/09/22 07:15:06;;;;;;;3.28;1.00;;;;;;;19.95;61.90;99967.75;4986277;28;20065;-57
2023/09/22 07:17:32;;;;;;;2.58;1.10;;;;;;;19.94;61.88;99966.06;4983034;28;20034;-57
2023/09/22 07:19:58;;;;;;;1.67;0.77;;;;;;;19.94;61.76;99966.91;4989817;28;20100;-57
2023/09/22 07:22:23;;;;;;;0.95;0.90;;;;;;;19.95;62.14;99967.75;4989843;28;20026;-57
2023/09/22 07:24:51;;;;;;;0.95;0.80;;;;;;;19.95;62.08;99971.28;4990436;28;20065;-57
2023/09/22 07:27:17;;;;;;;1.73;0.98;;;;;;;19.96;61.76;99969.44;4990927;28;20034;-57
2023/09/22 07:29:43;;;;;;;1.10;1.00;;;;;;;19.96;61.90;99972.13;4988194;28;20133;-58
2023/09/22 07:32:08;;;;;;;1.10;1.00;;;;;;;19.97;62.43;99973.81;4984889;28;20027;-57
2023/09/22 07:34:34;;;;;;;2.10;1.00;;;;;;;19.96;62.34;99974.84;4993619;28;20034;-57
2023/09/22 07:36:59;;;;;;;1.10;0.82;;;;;;;19.96;62.28;99988.34;4992753;28;20121;-57
2023/09/22 07:39:25;;;;;;;1.00;0.90;;;;;;;19.99;61.95;99990.66;4994532;28;20157;-57
2023/09/22 07:41:50;;;;;;;1.08;0.80;;;;;;;19.99;61.99;100001.47;4990025;28;20027;-57
2023/09/22 07:44:18;;;;;;;1.27;1.00;;;;;;;19.99;62.25;99996.94;4983457;28;20030;-57
2023/09/22 07:46:44;;;;;;;0.90;0.63;;;;;;;19.99;62.24;100001.47;4991672;28;20084;-57
2023/09/22 07:49:10;;;;;;;1.83;1.05;;;;;;;20.01;62.02;100016.50;4985394;28;20038;-57
2023/09/22 07:51:36;;;;;;;3.20;0.90;;;;;;;20.01;62.03;100016.50;4993854;28;20039;-57
2023/09/22 07:54:02;;;;;;;0.57;0.57;;;;;;;20.02;62.29;100014.63;4988210;28;20090;-57
2023/09/22 07:56:27;;;;;;;1.10;1.00;;;;;;;20.03;61.83;100019.88;4986520;28;20062;-57
2023/09/22 07:58:53;;;;;;;1.30;1.08;;;;;;;20.02;62.30;100017.34;4992707;28;20101;-57
2023/09/22 08:01:18;;;;;;;0.80;0.80;;;;;;;20.03;61.97;100019.88;4985342;28;20110;-57
2023/09/22 08:03:45;;;;;;;1.85;0.80;;;;;;;20.03;62.35;100016.31;4986479;28;20067;-57
2023/09/22 08:06:11;;;;;;;0.98;0.88;;;;;;;20.04;62.22;100026.13;4986985;28;20058;-57
2023/09/22 08:08:37;;;;;;;0.90;0.80;;;;;;;20.04;62.09;100018.00;4989274;28;20037;-57
2023/09/22 08:11:04;;;;;;;1.83;0.90;;;;;;;20.05;62.09;100017.00;4990876;28;20031;-57
2023/09/22 08:13:33;;;;;;;1.48;0.90;;;;;;;20.06;62.37;100024.06;4991282;28;20034;-57
2023/09/22 08:16:00;;;;;;;1.73;0.93;;;;;;;20.05;61.95;100023.22;4995338;28;20432;-57
2023/09/22 08:18:25;;;;;;;0.73;0.60;;;;;;;20.06;61.94;100029.47;4990812;28;20041;-58
2023/09/22 08:20:51;;;;;;;1.00;0.90;;;;;;;20.06;62.20;100029.47;4987940;28;20461;-57
2023/09/22 08:23:16;;;;;;;0.90;0.85;;;;;;;20.06;61.88;100030.31;4990900;28;20362;-57
2023/09/22 08:25:43;;;;;;;1.00;0.60;;;;;;;20.07;61.95;100041.97;4991459;28;20075;-57
2023/09/22 08:28:12;;;;;;;1.80;0.80;;;;;;;20.06;61.88;100038.41;4982803;28;20031;-57
2023/09/22 08:30:39;;;;;;;1.90;0.90;;;;;;;20.07;62.17;100041.97;4993521;28;20514;-57
2023/09/22 08:33:07;;;;;;;1.15;0.93;;;;;;;20.05;62.18;100036.75;4992535;28;20514;-57
2023/09/22 08:35:33;;;;;;;1.83;0.90;;;;;;;20.05;62.21;100050.25;4988397;28;20129;-57
2023/09/22 08:38:00;;;;;;;0.73;0.70;;;;;;;20.06;62.24;100045.69;4991462;28;20095;-57
2023/09/22 08:40:26;;;;;;;1.13;0.65;;;;;;;20.05;62.14;100038.63;4987077;28;20085;-57
2023/09/22 08:42:54;;;;;;;2.38;0.70;;;;;;;20.05;61.85;100044.03;4985515;28;20113;-57
2023/09/22 08:45:21;;;;;;;2.10;0.88;;;;;;;20.04;62.00;100043.16;4992122;28;20396;-58
2023/09/22 08:47:47;;;;;;;0.52;0.52;;;;;;;20.05;62.04;100052.13;4984464;28;20043;-57
2023/09/22 08:50:15;;;;;;;1.85;0.70;;;;;;;20.05;61.89;100049.44;4990451;28;20142;-57
2023/09/22 08:52:41;;;;;;;1.13;0.55;;;;;;;20.04;62.14;100058.53;4986691;28;20393;-57
2023/09/22 08:55:08;;;;;;;1.63;0.80;;;;;;;20.05;61.71;100046.72;4990347;28;20038;-57
2023/09/22 08:57:34;;;;;;;1.63;0.98;;;;;;;20.05;61.76;100049.44;4994848;28;20038;-57
2023/09/22 09:00:00;;;;;;;0.98;0.70;;;;;;;20.05;61.71;100050.25;4990489;28;20030;-57
2023/09/22 09:02:25;;;;;;;1.08;0.60;;;;;;;20.05;61.75;100050.25;4990675;28;20177;-57
2023/09/22 09:04:51;;;;;;;1.00;0.70;;;;;;;20.05;62.08;100062.94;4988658;28;20055;-57
2023/09/22 09:07:18;;;;;;;1.45;0.77;;;;;;;20.05;61.88;100065.63;4986721;28;20030;-57
2023/09/22 09:09:45;;;;;;;0.60;0.60;;;;;;;20.03;61.90;100063.09;4990695;28;20035;-57
2023/09/22 09:12:13;;;;;;;0.85;0.80;;;;;;;20.03;61.49;100063.09;4987017;28;20050;-57
2023/09/22 09:14:40;;;;;;;1.13;0.73;;;;;;;20.04;61.86;100069.34;4986941;28;20041;-57
2023/09/22 09:17:18;;;;;;;1.45;0.90;;;;;;;20.04;61.79;100063.94;4988051;28;20104;-57
2023/09/22 09:19:56;;;;;;;0.70;0.70;;;;;;;20.03;61.83;100064.94;4990156;28;20080;-57
2023/09/22 09:22:30;;;;;;;0.95;0.52;;;;;;;20.03;61.69;100073.91;4988087;28;20030;-57
2023/09/22 09:24:59;;;;;;;1.15;0.80;;;;;;;20.04;61.79;100070.19;4987051;28;20457;-57
2023/09/22 09:27:24;;;;;;;1.08;0.70;;;;;;;20.04;61.76;100070.19;4994035;28;20117;-57
2023/09/22 09:29:57;;;;;;;0.93;0.60;;;;;;;20.04;61.51;100067.47;4987357;28;20453;-57
2023/09/22 09:32:23;;;;;;;1.00;0.63;;;;;;;20.04;61.43;100074.75;4983567;28;20113;-57
2023/09/22 09:34:48;;;;;;;0.50;0.50;;;;;;;20.05;61.79;100076.44;4986957;28;20548;-57
2023/09/22 09:37:14;;;;;;;1.55;0.50;;;;;;;20.05;61.68;100077.28;4987518;28;20507;-57
2023/09/22 09:39:52;;;;;;;0.73;0.57;;;;;;;20.06;61.38;100072.72;4988421;28;20038;-57
2023/09/22 09:42:22;;;;;;;1.35;0.88;;;;;;;20.06;61.58;100073.53;4985995;28;20118;-57
2023/09/22 09:44:49;;;;;;;0.50;0.50;;;;;;;20.06;61.47;100072.72;4989309;28;20031;-57
2023/09/22 09:47:30;;;;;;;1.58;0.40;;;;;;;20.07;61.53;100077.94;4989522;28;20034;-57
2023/09/22 09:49:56;;;;;;;0.55;0.55;;;;;;;20.08;61.63;100082.31;4987493;28;20029;-57
2023/09/22 09:52:24;;;;;;;0.70;0.50;;;;;;;20.07;61.66;100085.22;4982816;28;20015;-57
2023/09/22 09:55:08;;;;;;;1.10;0.70;;;;;;;20.08;61.47;100076.06;4990617;28;20428;-57
2023/09/22 09:57:39;;;;;;;1.63;0.80;;;;;;;20.08;61.68;100090.41;4984678;28;20499;-57
2023/09/22 10:00:19;;;;;;;0.77;0.60;;;;;;;20.08;61.44;100085.00;4990227;28;20061;-57
2023/09/22 10:02:46;;;;;;;0.50;0.50;;;;;;;20.08;61.38;100082.31;4986396;28;20477;-57
2023/09/22 10:05:12;;;;;;;0.50;0.50;;;;;;;20.08;61.62;100081.47;4987140;28;20046;-57
2023/09/22 10:07:40;;;;;;;1.65;0.90;;;;;;;20.08;61.29;100076.06;4989816;28;20034;-57
2023/09/22 10:10:07;;;;;;;1.40;0.80;;;;;;;20.07;61.66;100077.09;4989096;28;20030;-57
2023/09/22 10:12:32;;;;;;;0.85;0.70;;;;;;;20.09;61.45;100075.06;4986894;28;20485;-57
2023/09/22 10:15:01;;;;;;;0.73;0.70;;;;;;;20.08;61.17;100067.97;4988557;28;20038;-58
2023/09/22 10:17:27;;;;;;;1.38;0.60;;;;;;;20.09;61.28;100061.56;4984107;28;20073;-57
2023/09/22 10:19:53;;;;;;;1.15;0.60;;;;;;;20.09;61.67;100067.78;4988054;28;20042;-57
2023/09/22 10:22:19;;;;;;;0.70;0.70;;;;;;;20.10;61.40;100068.63;4987131;28;20077;-57
2023/09/22 10:24:44;;;;;;;1.15;0.80;;;;;;;20.10;61.31;100077.59;4987338;28;20030;-57
2023/09/22 10:27:13;;;;;;;2.40;0.80;;;;;;;20.11;61.43;100068.44;4988451;28;20432;-57
2023/09/22 10:29:45;;;;;;;1.33;0.77;;;;;;;20.10;61.52;100071.31;4986219;28;20026;-57
2023/09/22 10:32:21;;;;;;;0.52;0.50;;;;;;;20.09;61.45;100062.38;4983652;28;20049;-57
2023/09/22 10:34:51;;;;;;;1.77;0.70;;;;;;;20.10;61.50;100071.31;4990606;28;20038;-57
2023/09/22 10:37:18;;;;;;;1.05;0.70;;;;;;;20.09;61.40;100072.38;4981314;28;20023;-57
2023/09/22 10:40:08;;;;;;;1.15;0.50;;;;;;;20.09;61.21;100073.19;4988362;28;20413;-57
2023/09/22 10:42:40;;;;;;;0.40;0.40;;;;;;;20.09;61.71;100066.97;4985394;28;20039;-58
2023/09/22 10:45:06;;;;;;;0.68;0.43;;;;;;;20.07;61.11;100074.41;4986425;28;20030;-57
2023/09/22 10:47:40;;;;;;;1.83;0.95;;;;;;;20.08;61.42;100067.97;4989426;28;20516;-58
2023/09/22 10:50:15;;;;;;;1.08;0.70;;;;;;;20.07;61.14;100071.69;4985502;28;20037;-57
2023/09/22 10:52:48;;;;;;;1.13;0.70;;;;;;;20.07;61.69;100066.28;4990710;28;20539;-57
2023/09/22 10:55:21;;;;;;;2.42;0.80;;;;;;;20.08;61.29;100070.66;4989407;28;20040;-58
2023/09/22 10:57:47;;;;;;;1.05;0.60;;;;;;;20.05;61.55;100061.06;4985671;28;20563;-58
2023/09/22 11:00:13;;;;;;;2.05;0.50;;;;;;;20.06;61.41;100072.72;4991012;28;20050;-58
2023/09/22 11:02:39;;;;;;;1.58;0.65;;;;;;;20.06;61.49;100068.13;4984675;28;20042;-58
2023/09/22 11:05:05;;;;;;;1.50;0.45;;;;;;;20.08;61.41;100076.06;4993402;28;20057;-58
2023/09/22 11:07:34;;;;;;;1.13;0.60;;;;;;;20.07;61.29;100074.41;4984358;28;20433;-58
2023/09/22 11:10:01;;;;;;;1.85;0.43;;;;;;;20.07;61.48;100071.69;4981969;28;20033;-58
2023/09/22 11:12:27;;;;;;;2.33;0.55;;;;;;;20.08;61.56;100070.66;4981925;28;20469;-58
2023/09/22 11:14:53;;;;;;;1.60;0.60;;;;;;;20.08;61.61;100068.78;4988271;28;20035;-58
2023/09/22 11:17:19;;;;;;;1.08;0.70;;;;;;;20.09;61.50;100077.78;4984461;28;20038;-58
2023/09/22 11:19:54;;;;;;;1.23;0.40;;;;;;;20.10;61.70;100079.44;4987391;28;20057;-58
2023/09/22 11:22:23;;;;;;;0.70;0.70;;;;;;;20.10;61.60;100079.44;4988287;28;20050;-58
2023/09/22 11:24:48;;;;;;;1.13;0.50;;;;;;;20.11;61.49;100081.13;4992542;28;20038;-58
2023/09/22 11:27:14;;;;;;;0.63;0.50;;;;;;;20.13;61.12;100070.16;4989910;28;20034;-58
2023/09/22 11:29:40;;;;;;;0.50;0.50;;;;;;;20.13;61.23;100081.78;4988038;28;20084;-58
2023/09/22 11:32:06;;;;;;;1.77;0.60;;;;;;;20.14;61.30;100078.06;4987375;28;20038;-58